Calumet, Oklahoma
Current Conditions -  °F | °C
As of 8:35 AM on Sunday 23 Nov 2014 (Local Time) from KRQO Reporting Station
Broken Clouds Broken Clouds  
Wind Chill: 52°   Ceiling: 1100
Heat Index: 52°   Visibility: 10mi
Dew Point: 50°   Wind: 20mph
Humidity: 94%   Direction: 200°SSW
Pressure: 29.43"   Gusts: NA
Location:  35.6°N, 98.12°W
Report Text: KRQO 231435Z AUTO 20017KT 10SM BKN011 11/10 A2943 RMK AO2
Loading
Personal Weather Stations






























Interactive Weather Map New forecast layout! Learn more

10-Day Weather Forecast

Advertisements
Track Severe Weather on mobile